Time;durP1;ratioP1;P1;durP2;ratioP2;P2;SDS_P1;SDS_P2;PMS_P1;PMS_P2;Temp;Humidity;BMP_temperature;BMP_pressure;BME280_temperature;BME280_humidity;BME280_pressure;Samples;Min_cycle;Max_cycle;Signal;HPM_P1;HPM_P2
2024/03/03 00:01:03;;;;;;;6.65;4.57;;;;;;;;;;5060688;28;20645;-73
2024/03/03 00:03:28;;;;;;;7.28;4.90;;;;;;;;;;5045458;28;20182;-73
2024/03/03 00:05:54;;;;;;;8.63;5.82;;;;;;;;;;5063692;28;20204;-73
2024/03/03 00:08:21;;;;;;;9.55;5.57;;;;;;;;;;5075362;28;20640;-73
2024/03/03 00:10:47;;;;;;;10.38;5.90;;;;;;;;;;5054769;28;20203;-73
2024/03/03 00:13:12;;;;;;;7.35;5.45;;;;;;;;;;5066550;28;20185;-73
2024/03/03 00:15:38;;;;;;;8.25;4.97;;;;;;;;;;5069787;28;20260;-73
2024/03/03 00:18:03;;;;;;;8.18;6.00;;;;;;;;;;5067227;28;20243;-73
2024/03/03 00:20:29;;;;;;;7.82;6.00;;;;;;;;;;5080549;28;20207;-73
2024/03/03 00:22:54;;;;;;;9.02;5.72;;;;;;;;;;5044164;28;20177;-74
2024/03/03 00:25:20;;;;;;;9.30;5.55;;;;;;;;;;5062401;28;20675;-74
2024/03/03 00:27:45;;;;;;;9.88;5.93;;;;;;;;;;5050442;28;20180;-74
2024/03/03 00:30:11;;;;;;;7.50;5.75;;;;;;;;;;5061734;28;20208;-73
2024/03/03 00:32:36;;;;;;;9.95;6.20;;;;;;;;;;5067363;28;20303;-73
2024/03/03 00:35:02;;;;;;;10.07;5.60;;;;;;;;;;5066330;28;20236;-73
2024/03/03 00:37:28;;;;;;;8.75;5.63;;;;;;;;;;5058235;28;20538;-73
2024/03/03 00:39:53;;;;;;;9.38;6.43;;;;;;;;;;5054168;28;20194;-74
2024/03/03 00:42:18;;;;;;;8.68;5.97;;;;;;;;;;5040862;28;20529;-73
2024/03/03 00:44:44;;;;;;;9.88;5.65;;;;;;;;;;5056075;28;20193;-73
2024/03/03 00:47:09;;;;;;;10.20;6.30;;;;;;;;;;5051323;28;20185;-73
2024/03/03 00:49:35;;;;;;;8.77;5.80;;;;;;;;;;5041728;28;20200;-73
2024/03/03 00:52:01;;;;;;;9.13;6.25;;;;;;;;;;5072658;28;20197;-73
2024/03/03 00:54:27;;;;;;;8.75;6.10;;;;;;;;;;5069210;28;20198;-73
2024/03/03 00:56:52;;;;;;;10.07;6.40;;;;;;;;;;5069150;28;20593;-73
2024/03/03 00:59:17;;;;;;;8.90;5.95;;;;;;;;;;5062562;28;20292;-73
2024/03/03 01:01:43;;;;;;;8.75;6.07;;;;;;;;;;5070858;28;20196;-72
2024/03/03 01:04:08;;;;;;;9.23;6.10;;;;;;;;;;5066713;28;20181;-72
2024/03/03 01:06:34;;;;;;;8.38;6.15;;;;;;;;;;5051901;28;20181;-72
2024/03/03 01:08:59;;;;;;;8.63;6.18;;;;;;;;;;5059726;28;20186;-73
2024/03/03 01:11:25;;;;;;;8.75;6.05;;;;;;;;;;5045376;28;20181;-72
2024/03/03 01:13:50;;;;;;;9.95;6.55;;;;;;;;;;5062531;28;20667;-73
2024/03/03 01:16:16;;;;;;;8.27;6.40;;;;;;;;;;5063459;28;20177;-73
2024/03/03 01:18:41;;;;;;;9.43;6.40;;;;;;;;;;5058214;28;20765;-73
2024/03/03 01:21:06;;;;;;;9.73;6.82;;;;;;;;;;5049888;28;20192;-73
2024/03/03 01:23:32;;;;;;;9.38;5.85;;;;;;;;;;5075757;28;20502;-73
2024/03/03 01:25:57;;;;;;;8.63;6.20;;;;;;;;;;5064794;28;20184;-73
2024/03/03 01:28:23;;;;;;;10.48;6.60;;;;;;;;;;5067419;28;20199;-73
2024/03/03 01:30:48;;;;;;;9.20;6.53;;;;;;;;;;5063647;28;20192;-73
2024/03/03 01:33:14;;;;;;;10.18;6.40;;;;;;;;;;5076444;28;20197;-73
2024/03/03 01:35:39;;;;;;;10.90;7.38;;;;;;;;;;5068386;28;20301;-72
2024/03/03 01:38:04;;;;;;;13.05;6.93;;;;;;;;;;5066865;28;20270;-72
2024/03/03 01:40:30;;;;;;;10.38;6.65;;;;;;;;;;5046601;28;20220;-72
2024/03/03 01:42:56;;;;;;;10.07;6.40;;;;;;;;;;5056368;28;20189;-73
2024/03/03 01:45:23;;;;;;;9.10;6.55;;;;;;;;;;5050956;28;20219;-73
2024/03/03 01:47:54;;;;;;;9.48;6.90;;;;;;;;;;5073843;28;20682;-72
2024/03/03 01:50:21;;;;;;;8.98;6.30;;;;;;;;;;5066014;28;20191;-72
2024/03/03 01:52:49;;;;;;;10.75;6.60;;;;;;;;;;5067451;28;20196;-73
2024/03/03 01:55:18;;;;;;;12.00;7.03;;;;;;;;;;5068169;28;20201;-73
2024/03/03 01:57:44;;;;;;;10.25;7.25;;;;;;;;;;5067077;28;20235;-73
2024/03/03 02:00:11;;;;;;;12.07;7.32;;;;;;;;;;5070972;28;20185;-73
2024/03/03 02:02:40;;;;;;;9.93;6.93;;;;;;;;;;5072186;28;20589;-73
2024/03/03 02:05:07;;;;;;;12.45;6.63;;;;;;;;;;5060856;28;20189;-73
2024/03/03 02:07:32;;;;;;;12.07;7.32;;;;;;;;;;5058169;28;20296;-73
2024/03/03 02:09:59;;;;;;;11.30;6.93;;;;;;;;;;5070804;28;20310;-73
2024/03/03 02:12:25;;;;;;;9.95;7.22;;;;;;;;;;5057002;28;20200;-73
2024/03/03 02:14:54;;;;;;;10.70;7.20;;;;;;;;;;5042387;28;20198;-73
2024/03/03 02:17:20;;;;;;;9.73;7.10;;;;;;;;;;5052466;28;20208;-73
2024/03/03 02:19:45;;;;;;;12.88;7.68;;;;;;;;;;5070018;28;20212;-73
2024/03/03 02:22:11;;;;;;;9.43;6.97;;;;;;;;;;5069163;28;20208;-73
2024/03/03 02:24:36;;;;;;;12.07;7.15;;;;;;;;;;5073923;28;20191;-73
2024/03/03 02:27:03;;;;;;;13.15;7.30;;;;;;;;;;5059165;28;20471;-73
2024/03/03 02:29:30;;;;;;;10.95;7.35;;;;;;;;;;5068971;28;20250;-72
2024/03/03 02:31:56;;;;;;;10.38;7.35;;;;;;;;;;5068356;28;20195;-73
2024/03/03 02:34:21;;;;;;;13.63;8.00;;;;;;;;;;5069895;28;20680;-72
2024/03/03 02:36:47;;;;;;;13.18;7.22;;;;;;;;;;5069195;28;20253;-73
2024/03/03 02:39:14;;;;;;;13.13;7.93;;;;;;;;;;5060169;28;20279;-73
2024/03/03 02:41:40;;;;;;;10.88;7.63;;;;;;;;;;5066686;28;20540;-72
2024/03/03 02:44:05;;;;;;;12.05;7.82;;;;;;;;;;5055653;28;20186;-73
2024/03/03 02:46:31;;;;;;;9.90;7.40;;;;;;;;;;5070076;28;20192;-73
2024/03/03 02:48:56;;;;;;;12.98;7.75;;;;;;;;;;5072814;28;20610;-73
2024/03/03 02:51:22;;;;;;;13.90;8.38;;;;;;;;;;5071403;28;20227;-73
2024/03/03 02:53:48;;;;;;;11.70;7.95;;;;;;;;;;5060780;28;20573;-72
2024/03/03 02:56:14;;;;;;;11.90;7.60;;;;;;;;;;5069384;28;20547;-72
2024/03/03 02:58:39;;;;;;;10.75;7.35;;;;;;;;;;5072499;28;20354;-72
2024/03/03 03:01:05;;;;;;;11.95;7.88;;;;;;;;;;5067498;28;20182;-72
2024/03/03 03:03:31;;;;;;;11.52;7.47;;;;;;;;;;5061730;28;20188;-73
2024/03/03 03:05:56;;;;;;;13.40;8.05;;;;;;;;;;5066965;28;20188;-73
2024/03/03 03:08:22;;;;;;;11.35;7.75;;;;;;;;;;5065956;28;20209;-73
2024/03/03 03:10:47;;;;;;;11.77;7.57;;;;;;;;;;5065068;28;20272;-73
2024/03/03 03:13:13;;;;;;;10.18;7.18;;;;;;;;;;5056812;28;20248;-73
2024/03/03 03:15:38;;;;;;;12.82;8.20;;;;;;;;;;5071352;28;20189;-73
2024/03/03 03:18:04;;;;;;;12.43;8.15;;;;;;;;;;5070214;28;20583;-73
2024/03/03 03:20:30;;;;;;;12.52;8.30;;;;;;;;;;5066810;28;20200;-73
2024/03/03 03:22:56;;;;;;;12.02;7.60;;;;;;;;;;5057065;28;20247;-77
2024/03/03 03:25:21;;;;;;;11.40;7.35;;;;;;;;;;5069989;28;20197;-73
2024/03/03 03:27:46;;;;;;;11.60;8.43;;;;;;;;;;5071869;28;20189;-73
2024/03/03 03:30:12;;;;;;;12.35;8.38;;;;;;;;;;5055551;28;20199;-73
2024/03/03 03:32:38;;;;;;;12.00;7.85;;;;;;;;;;5048375;28;20184;-73
2024/03/03 03:35:04;;;;;;;11.10;8.10;;;;;;;;;;5069843;28;20671;-74
2024/03/03 03:37:30;;;;;;;12.57;8.07;;;;;;;;;;5072567;28;20644;-72
2024/03/03 03:39:56;;;;;;;10.23;7.70;;;;;;;;;;5059868;28;20253;-72
2024/03/03 03:42:21;;;;;;;12.93;8.30;;;;;;;;;;5068519;28;20184;-72
2024/03/03 03:44:47;;;;;;;12.27;7.80;;;;;;;;;;5049716;28;20189;-73
2024/03/03 03:47:12;;;;;;;11.48;7.38;;;;;;;;;;5061347;28;20648;-72
2024/03/03 03:49:38;;;;;;;11.75;8.07;;;;;;;;;;5069793;28;20177;-73
2024/03/03 03:52:03;;;;;;;12.35;8.20;;;;;;;;;;5053250;28;20198;-73
2024/03/03 03:54:30;;;;;;;11.80;7.70;;;;;;;;;;5063726;28;20193;-73
2024/03/03 03:56:57;;;;;;;11.68;8.40;;;;;;;;;;5069594;28;20192;-72
2024/03/03 03:59:23;;;;;;;12.32;8.45;;;;;;;;;;5060277;28;20209;-72
2024/03/03 04:01:49;;;;;;;13.65;7.93;;;;;;;;;;5062436;28;20196;-72
2024/03/03 04:04:14;;;;;;;14.98;8.43;;;;;;;;;;5068261;28;20211;-72
2024/03/03 04:06:40;;;;;;;12.40;8.13;;;;;;;;;;5066665;28;20671;-72
2024/03/03 04:09:05;;;;;;;12.20;8.75;;;;;;;;;;5070565;28;20177;-72
2024/03/03 04:11:31;;;;;;;11.13;8.02;;;;;;;;;;5069773;28;20651;-72
2024/03/03 04:13:57;;;;;;;12.82;8.30;;;;;;;;;;5067626;28;20265;-72
2024/03/03 04:16:22;;;;;;;14.15;8.82;;;;;;;;;;5069644;28;20659;-73
2024/03/03 04:18:48;;;;;;;12.05;8.13;;;;;;;;;;5064832;28;20248;-73
2024/03/03 04:21:14;;;;;;;16.30;9.00;;;;;;;;;;5070791;28;20193;-73
2024/03/03 04:23:39;;;;;;;12.30;8.60;;;;;;;;;;5067476;28;20425;-72
2024/03/03 04:26:06;;;;;;;13.23;9.20;;;;;;;;;;5064939;28;20181;-73
2024/03/03 04:28:32;;;;;;;13.57;8.70;;;;;;;;;;5071104;28;20234;-73
2024/03/03 04:30:57;;;;;;;11.55;8.88;;;;;;;;;;5063180;28;20193;-73
2024/03/03 04:33:23;;;;;;;15.50;9.93;;;;;;;;;;5067936;28;20230;-72
2024/03/03 04:35:49;;;;;;;15.82;8.75;;;;;;;;;;5068232;28;20233;-72
2024/03/03 04:38:14;;;;;;;14.05;9.18;;;;;;;;;;5059657;28;20223;-72
2024/03/03 04:40:43;;;;;;;13.65;9.15;;;;;;;;;;5068430;28;20530;-72
2024/03/03 04:43:11;;;;;;;15.48;9.50;;;;;;;;;;5061935;28;20193;-73
2024/03/03 04:45:37;;;;;;;15.48;9.50;;;;;;;;;;5058459;28;20189;-72
2024/03/03 04:48:03;;;;;;;14.00;9.55;;;;;;;;;;5068035;28;20184;-73
2024/03/03 04:50:28;;;;;;;17.55;9.70;;;;;;;;;;5065810;28;20180;-73
2024/03/03 04:52:54;;;;;;;15.95;9.23;;;;;;;;;;5068946;28;20200;-72
2024/03/03 04:55:19;;;;;;;14.93;9.88;;;;;;;;;;5067923;28;20594;-72
2024/03/03 04:57:45;;;;;;;15.93;9.82;;;;;;;;;;5068669;28;20253;-73
2024/03/03 05:00:11;;;;;;;13.95;9.80;;;;;;;;;;5064072;28;20275;-73
2024/03/03 05:02:36;;;;;;;13.48;9.10;;;;;;;;;;5056823;28;20715;-72
2024/03/03 05:05:02;;;;;;;14.25;9.52;;;;;;;;;;5057582;28;20227;-72
2024/03/03 05:07:29;;;;;;;15.32;9.60;;;;;;;;;;5056085;28;20675;-72
2024/03/03 05:09:54;;;;;;;15.43;10.20;;;;;;;;;;5080578;28;20189;-72
2024/03/03 05:12:20;;;;;;;15.57;9.68;;;;;;;;;;5060050;28;20212;-72
2024/03/03 05:14:45;;;;;;;14.10;9.52;;;;;;;;;;5065754;28;20653;-72
2024/03/03 05:17:11;;;;;;;15.10;10.35;;;;;;;;;;5061950;28;20314;-72
2024/03/03 05:19:37;;;;;;;13.73;9.68;;;;;;;;;;5068461;28;20703;-72
2024/03/03 05:22:02;;;;;;;14.50;9.70;;;;;;;;;;5064856;28;20189;-72
2024/03/03 05:24:28;;;;;;;16.27;10.63;;;;;;;;;;5067663;28;20185;-72
2024/03/03 05:26:53;;;;;;;16.33;10.38;;;;;;;;;;5066747;28;20247;-72
2024/03/03 05:29:19;;;;;;;17.20;10.65;;;;;;;;;;5067281;28;20275;-72
2024/03/03 05:31:44;;;;;;;15.25;9.90;;;;;;;;;;5059113;28;20189;-72
2024/03/03 05:34:15;;;;;;;14.45;10.32;;;;;;;;;;5067030;28;20622;-72
2024/03/03 05:36:45;;;;;;;16.92;9.73;;;;;;;;;;5068476;28;20309;-72
2024/03/03 05:39:12;;;;;;;15.65;10.57;;;;;;;;;;5073278;28;20753;-72
2024/03/03 05:41:39;;;;;;;15.80;10.35;;;;;;;;;;5081153;28;20212;-72
2024/03/03 05:44:06;;;;;;;15.60;10.00;;;;;;;;;;5060424;28;20280;-72
2024/03/03 05:46:38;;;;;;;16.50;10.63;;;;;;;;;;5058267;28;20185;-72
2024/03/03 05:49:04;;;;;;;14.63;9.77;;;;;;;;;;5063361;28;20738;-72
2024/03/03 05:51:29;;;;;;;17.33;10.98;;;;;;;;;;5073881;28;20192;-72
2024/03/03 05:53:55;;;;;;;15.60;10.35;;;;;;;;;;5067742;28;20250;-72
2024/03/03 05:56:21;;;;;;;18.67;11.13;;;;;;;;;;5065268;28;20194;-72
2024/03/03 05:58:46;;;;;;;15.38;9.73;;;;;;;;;;5066866;28;20211;-72
2024/03/03 06:01:12;;;;;;;13.63;9.57;;;;;;;;;;5076953;28;20716;-72
2024/03/03 06:03:38;;;;;;;16.20;10.07;;;;;;;;;;5075440;28;20576;-72
2024/03/03 06:06:08;;;;;;;18.92;11.75;;;;;;;;;;5064673;28;20663;-72
2024/03/03 06:08:35;;;;;;;15.93;10.70;;;;;;;;;;5071571;28;20204;-72
2024/03/03 06:11:00;;;;;;;15.30;10.50;;;;;;;;;;5070666;28;20211;-72
2024/03/03 06:13:26;;;;;;;16.00;11.23;;;;;;;;;;5066325;28;20569;-72
2024/03/03 06:15:51;;;;;;;14.52;10.38;;;;;;;;;;5070394;28;20197;-72
2024/03/03 06:18:17;;;;;;;15.73;10.10;;;;;;;;;;5060121;28;20212;-72
2024/03/03 06:20:42;;;;;;;16.42;11.27;;;;;;;;;;5057214;28;20182;-72
2024/03/03 06:23:08;;;;;;;16.48;10.80;;;;;;;;;;5068528;28;20185;-72
2024/03/03 06:25:33;;;;;;;17.25;11.05;;;;;;;;;;5071936;28;20275;-72
2024/03/03 06:27:59;;;;;;;17.88;11.48;;;;;;;;;;5067970;28;20201;-72
2024/03/03 06:30:25;;;;;;;14.90;10.70;;;;;;;;;;5065739;28;20632;-72
2024/03/03 06:32:50;;;;;;;18.05;10.88;;;;;;;;;;5062460;28;20189;-72
2024/03/03 06:35:17;;;;;;;15.50;10.68;;;;;;;;;;5070816;28;20283;-72
2024/03/03 06:37:43;;;;;;;15.98;10.77;;;;;;;;;;5069975;28;20196;-72
2024/03/03 06:40:09;;;;;;;16.63;11.15;;;;;;;;;;5065250;28;20651;-72
2024/03/03 06:42:38;;;;;;;16.85;11.02;;;;;;;;;;5069355;28;20195;-72
2024/03/03 06:45:04;;;;;;;14.68;10.63;;;;;;;;;;5072855;28;20479;-72
2024/03/03 06:47:29;;;;;;;15.75;10.55;;;;;;;;;;5062673;28;20251;-70
2024/03/03 06:49:55;;;;;;;19.85;11.90;;;;;;;;;;5070150;28;20755;-71
2024/03/03 06:52:23;;;;;;;17.40;11.13;;;;;;;;;;5071985;28;20468;-73
2024/03/03 06:54:48;;;;;;;15.98;11.50;;;;;;;;;;5058156;28;20685;-72
2024/03/03 06:57:14;;;;;;;15.23;10.52;;;;;;;;;;5049474;28;20220;-72
2024/03/03 06:59:40;;;;;;;17.98;11.68;;;;;;;;;;5066548;28;20298;-72
2024/03/03 07:02:06;;;;;;;17.95;11.00;;;;;;;;;;5056137;28;20194;-72
2024/03/03 07:04:31;;;;;;;16.67;10.85;;;;;;;;;;5069935;28;20192;-72
2024/03/03 07:06:57;;;;;;;19.90;11.95;;;;;;;;;;5065655;28;20185;-72
2024/03/03 07:09:23;;;;;;;18.35;11.85;;;;;;;;;;5053655;28;20653;-72
2024/03/03 07:11:53;;;;;;;17.83;11.63;;;;;;;;;;5070367;28;20553;-72
2024/03/03 07:14:19;;;;;;;18.02;11.93;;;;;;;;;;5062081;28;20283;-74
2024/03/03 07:16:44;;;;;;;18.30;11.20;;;;;;;;;;5061560;28;20263;-73
2024/03/03 07:19:10;;;;;;;17.83;11.52;;;;;;;;;;5052196;28;20652;-73
2024/03/03 07:21:35;;;;;;;15.75;10.82;;;;;;;;;;5051576;28;20220;-73
2024/03/03 07:24:01;;;;;;;17.48;11.27;;;;;;;;;;5069911;28;20217;-73
2024/03/03 07:26:26;;;;;;;19.73;12.07;;;;;;;;;;5065943;28;20610;-73
2024/03/03 07:28:52;;;;;;;18.05;11.07;;;;;;;;;;5069355;28;20652;-73
2024/03/03 07:31:18;;;;;;;17.30;10.65;;;;;;;;;;5068507;28;20192;-73
2024/03/03 07:33:43;;;;;;;16.48;10.70;;;;;;;;;;5070142;28;20258;-73
2024/03/03 07:36:09;;;;;;;17.10;10.90;;;;;;;;;;5070198;28;20270;-73
2024/03/03 07:38:35;;;;;;;17.00;10.98;;;;;;;;;;5063074;28;20205;-73
2024/03/03 07:41:01;;;;;;;15.48;10.55;;;;;;;;;;5059328;28;20560;-73
2024/03/03 07:43:26;;;;;;;18.15;11.80;;;;;;;;;;5065814;28;20192;-73
2024/03/03 07:45:52;;;;;;;18.73;11.82;;;;;;;;;;5060245;28;20197;-73
2024/03/03 07:48:17;;;;;;;16.73;11.32;;;;;;;;;;5069099;28;20200;-73
2024/03/03 07:50:43;;;;;;;16.48;10.70;;;;;;;;;;5039056;28;20231;-71
2024/03/03 07:53:09;;;;;;;19.15;11.57;;;;;;;;;;5062247;28;20185;-72
2024/03/03 07:55:36;;;;;;;17.92;11.93;;;;;;;;;;5070365;28;20503;-72
2024/03/03 07:58:01;;;;;;;18.33;11.88;;;;;;;;;;5068510;28;20181;-73
2024/03/03 08:00:33;;;;;;;17.05;11.10;;;;;;;;;;5059624;28;20563;-73
2024/03/03 08:03:04;;;;;;;17.83;11.85;;;;;;;;;;5070110;28;20189;-73
2024/03/03 08:05:32;;;;;;;16.95;11.43;;;;;;;;;;5049807;28;20276;-72
2024/03/03 08:08:01;;;;;;;17.90;11.73;;;;;;;;;;5069392;28;20699;-72
2024/03/03 08:10:27;;;;;;;17.23;11.30;;;;;;;;;;5069843;28;20231;-73
2024/03/03 08:12:53;;;;;;;15.32;10.52;;;;;;;;;;5062077;28;20224;-72
2024/03/03 08:15:19;;;;;;;18.30;11.68;;;;;;;;;;5065862;28;20201;-72
2024/03/03 08:17:44;;;;;;;16.88;10.88;;;;;;;;;;5062432;28;20192;-72
2024/03/03 08:20:10;;;;;;;17.95;11.38;;;;;;;;;;5066935;28;20223;-72
2024/03/03 08:22:40;;;;;;;16.88;10.93;;;;;;;;;;5068191;28;20197;-72
2024/03/03 08:25:12;;;;;;;16.40;10.80;;;;;;;;;;5067846;28;20258;-72
2024/03/03 08:27:38;;;;;;;15.35;10.57;;;;;;;;;;5067104;28;20472;-73
2024/03/03 08:30:11;;;;;;;19.25;10.38;;;;;;;;;;5070383;28;20268;-73
2024/03/03 08:32:38;;;;;;;17.88;11.00;;;;;;;;;;5064564;28;20188;-73
2024/03/03 08:35:04;;;;;;;16.27;10.57;;;;;;;;;;5068021;28;20227;-74
2024/03/03 08:37:30;;;;;;;15.60;10.63;;;;;;;;;;5069522;28;20207;-73
2024/03/03 08:39:56;;;;;;;15.57;10.38;;;;;;;;;;5065660;28;20209;-72
2024/03/03 08:42:21;;;;;;;14.40;10.10;;;;;;;;;;5067703;28;20199;-73
2024/03/03 08:44:46;;;;;;;18.80;11.00;;;;;;;;;;5067401;28;20189;-73
2024/03/03 08:47:12;;;;;;;15.23;10.13;;;;;;;;;;5067022;28;20196;-73
2024/03/03 08:49:37;;;;;;;16.38;10.57;;;;;;;;;;5068841;28;20549;-73
2024/03/03 08:52:03;;;;;;;16.33;10.85;;;;;;;;;;5055685;28;20652;-73
2024/03/03 08:54:31;;;;;;;14.25;9.73;;;;;;;;;;5067369;28;20185;-73
2024/03/03 08:56:57;;;;;;;15.32;10.13;;;;;;;;;;5061155;28;20239;-73
2024/03/03 08:59:22;;;;;;;13.48;9.43;;;;;;;;;;5063428;28;20525;-74
2024/03/03 09:01:48;;;;;;;13.73;9.73;;;;;;;;;;5072314;28;20199;-73
2024/03/03 09:04:14;;;;;;;14.98;9.60;;;;;;;;;;5069849;28;20184;-73
2024/03/03 09:06:40;;;;;;;13.93;9.65;;;;;;;;;;5079901;28;20190;-73
2024/03/03 09:09:05;;;;;;;14.38;9.82;;;;;;;;;;5065257;28;20173;-73
2024/03/03 09:11:33;;;;;;;15.38;9.05;;;;;;;;;;5070468;28;20191;-72
2024/03/03 09:13:59;;;;;;;13.32;9.30;;;;;;;;;;5074048;28;20203;-72
2024/03/03 09:16:25;;;;;;;13.85;9.48;;;;;;;;;;5059862;28;20197;-72
2024/03/03 09:18:53;;;;;;;13.27;9.60;;;;;;;;;;5075166;28;20216;-73
2024/03/03 09:21:19;;;;;;;14.93;9.50;;;;;;;;;;5059555;28;20608;-73
2024/03/03 09:23:46;;;;;;;12.73;9.45;;;;;;;;;;5067057;28;20287;-73
2024/03/03 09:26:11;;;;;;;13.35;8.70;;;;;;;;;;5065351;28;20196;-73
2024/03/03 09:28:37;;;;;;;13.65;9.90;;;;;;;;;;5069644;28;20547;-73
2024/03/03 09:31:04;;;;;;;12.60;9.27;;;;;;;;;;5066847;28;20212;-73
2024/03/03 09:33:29;;;;;;;13.13;9.30;;;;;;;;;;5065015;28;20188;-73
2024/03/03 09:35:55;;;;;;;13.43;9.55;;;;;;;;;;5059124;28;20236;-71
2024/03/03 09:38:20;;;;;;;17.90;10.27;;;;;;;;;;5064401;28;20332;-71
2024/03/03 09:40:46;;;;;;;16.08;10.73;;;;;;;;;;5065699;28;20507;-71
2024/03/03 09:43:18;;;;;;;13.85;9.93;;;;;;;;;;5066766;28;20267;-72
2024/03/03 09:45:49;;;;;;;15.52;9.35;;;;;;;;;;5068175;28;20550;-73
2024/03/03 09:48:15;;;;;;;15.10;10.60;;;;;;;;;;5068141;28;20611;-73
2024/03/03 09:50:42;;;;;;;16.27;10.48;;;;;;;;;;5058854;28;20185;-72
2024/03/03 09:53:08;;;;;;;13.77;9.48;;;;;;;;;;5062344;28;20223;-72
2024/03/03 09:55:36;;;;;;;14.77;9.95;;;;;;;;;;5063961;28;20192;-73
2024/03/03 09:58:03;;;;;;;15.25;10.50;;;;;;;;;;5065565;28;20218;-72
2024/03/03 10:00:31;;;;;;;14.50;10.52;;;;;;;;;;5057455;28;20672;-72
2024/03/03 10:02:58;;;;;;;12.88;8.70;;;;;;;;;;5059718;28;20193;-72
2024/03/03 10:05:25;;;;;;;15.75;10.10;;;;;;;;;;5067318;28;20206;-72
2024/03/03 10:07:52;;;;;;;16.20;10.32;;;;;;;;;;5067479;28;20270;-72
2024/03/03 10:10:20;;;;;;;14.30;9.60;;;;;;;;;;5067384;28;20196;-72
2024/03/03 10:12:47;;;;;;;13.90;9.68;;;;;;;;;;5067404;28;20189;-72
2024/03/03 10:15:14;;;;;;;13.40;9.60;;;;;;;;;;5065343;28;20200;-72
2024/03/03 10:17:40;;;;;;;13.18;9.38;;;;;;;;;;5067306;28;20199;-72
2024/03/03 10:20:06;;;;;;;17.70;9.93;;;;;;;;;;5064654;28;20220;-72
2024/03/03 10:22:33;;;;;;;14.23;10.18;;;;;;;;;;5067796;28;20314;-72
2024/03/03 10:25:11;;;;;;;13.75;9.38;;;;;;;;;;5061437;28;20181;-73
2024/03/03 10:27:42;;;;;;;14.73;10.18;;;;;;;;;;5070909;28;20185;-72
2024/03/03 10:30:09;;;;;;;14.70;10.02;;;;;;;;;;5077187;28;20181;-72
2024/03/03 10:32:36;;;;;;;24.55;10.35;;;;;;;;;;5069462;28;20563;-72
2024/03/03 10:35:02;;;;;;;18.48;9.48;;;;;;;;;;5054285;28;20436;-72
2024/03/03 10:37:29;;;;;;;14.40;9.38;;;;;;;;;;5082571;28;20196;-73
2024/03/03 10:39:54;;;;;;;13.88;9.88;;;;;;;;;;5073566;28;20583;-73
2024/03/03 10:42:20;;;;;;;13.60;9.98;;;;;;;;;;5085970;28;20187;-72
2024/03/03 10:44:45;;;;;;;14.15;9.43;;;;;;;;;;5083270;28;20195;-71
2024/03/03 10:47:14;;;;;;;14.93;10.20;;;;;;;;;;5069465;28;20276;-72
2024/03/03 10:49:40;;;;;;;14.43;10.05;;;;;;;;;;5059405;28;20193;-71
2024/03/03 10:52:10;;;;;;;11.55;8.65;;;;;;;;;;5050801;28;20173;-72
2024/03/03 10:54:37;;;;;;;14.70;9.68;;;;;;;;;;5069172;28;20213;-72
2024/03/03 10:57:03;;;;;;;14.93;9.65;;;;;;;;;;5056609;28;20551;-73
2024/03/03 10:59:33;;;;;;;16.67;10.20;;;;;;;;;;5063561;28;20201;-73
2024/03/03 11:02:01;;;;;;;13.70;9.18;;;;;;;;;;5064648;28;20275;-73
2024/03/03 11:04:30;;;;;;;14.25;9.57;;;;;;;;;;5070209;28;20624;-73
2024/03/03 11:07:01;;;;;;;15.25;9.93;;;;;;;;;;5061726;28;20210;-73
2024/03/03 11:09:27;;;;;;;13.70;9.80;;;;;;;;;;5052453;28;20181;-72
2024/03/03 11:12:00;;;;;;;15.35;10.45;;;;;;;;;;5076990;28;20614;-73
2024/03/03 11:14:32;;;;;;;14.55;10.60;;;;;;;;;;5060831;28;20280;-73
2024/03/03 11:17:01;;;;;;;17.92;10.20;;;;;;;;;;5059590;28;20185;-73
2024/03/03 11:19:40;;;;;;;15.77;10.10;;;;;;;;;;5061456;28;20284;-73
2024/03/03 11:22:10;;;;;;;16.38;10.35;;;;;;;;;;5062746;28;20674;-74
2024/03/03 11:24:41;;;;;;;12.90;9.73;;;;;;;;;;5070220;28;20184;-73
2024/03/03 11:27:21;;;;;;;18.30;10.40;;;;;;;;;;5070196;28;20298;-73
2024/03/03 11:29:47;;;;;;;14.90;9.98;;;;;;;;;;5064293;28;20277;-72
2024/03/03 11:32:14;;;;;;;12.05;9.15;;;;;;;;;;5058882;28;20612;-72
2024/03/03 11:34:42;;;;;;;14.68;9.40;;;;;;;;;;5059896;28;20727;-71
2024/03/03 11:37:09;;;;;;;14.38;9.57;;;;;;;;;;5058566;28;20263;-71
2024/03/03 11:39:35;;;;;;;16.17;10.82;;;;;;;;;;5068916;28;20892;-72
2024/03/03 11:42:19;;;;;;;14.00;10.02;;;;;;;;;;5055889;28;20276;-73
2024/03/03 11:44:52;;;;;;;13.40;9.15;;;;;;;;;;5055746;28;20212;-72
2024/03/03 11:47:18;;;;;;;15.60;9.02;;;;;;;;;;5065581;28;20200;-72
2024/03/03 11:49:44;;;;;;;15.80;9.80;;;;;;;;;;5064297;28;20209;-73
2024/03/03 11:52:10;;;;;;;15.88;9.73;;;;;;;;;;5070723;28;20204;-73
2024/03/03 11:54:41;;;;;;;13.63;9.68;;;;;;;;;;5070705;28;20184;-73
2024/03/03 11:57:09;;;;;;;14.13;10.40;;;;;;;;;;5064895;28;20277;-72
2024/03/03 11:59:43;;;;;;;43.95;19.27;;;;;;;;;;5070935;28;20227;-72
2024/03/03 12:02:13;;;;;;;13.68;9.93;;;;;;;;;;5069134;28;20197;-71
2024/03/03 12:04:48;;;;;;;13.27;9.55;;;;;;;;;;5070292;28;20187;-72
2024/03/03 12:07:16;;;;;;;13.80;10.20;;;;;;;;;;5059224;28;20176;-72
2024/03/03 12:09:46;;;;;;;15.27;9.98;;;;;;;;;;5069354;28;20230;-73
2024/03/03 12:12:12;;;;;;;13.23;9.18;;;;;;;;;;5066752;28;20198;-73
2024/03/03 12:14:39;;;;;;;15.90;8.82;;;;;;;;;;5051207;28;20714;-72
2024/03/03 12:17:08;;;;;;;13.48;8.25;;;;;;;;;;5069047;28;20185;-72
2024/03/03 12:19:34;;;;;;;10.93;8.35;;;;;;;;;;5068776;28;20692;-73
2024/03/03 12:22:00;;;;;;;12.02;8.25;;;;;;;;;;5070523;28;20671;-72
2024/03/03 12:24:26;;;;;;;13.05;8.85;;;;;;;;;;5066423;28;20679;-72
2024/03/03 12:26:52;;;;;;;15.07;9.18;;;;;;;;;;5040000;28;20177;-72
2024/03/03 12:29:17;;;;;;;14.45;9.38;;;;;;;;;;5064149;28;20235;-72
2024/03/03 12:31:43;;;;;;;17.55;8.88;;;;;;;;;;5070517;28;20192;-72
2024/03/03 12:34:08;;;;;;;12.32;9.18;;;;;;;;;;5056753;28;20237;-72
2024/03/03 12:36:34;;;;;;;11.88;8.70;;;;;;;;;;5065774;28;20196;-72
2024/03/03 12:39:03;;;;;;;11.75;8.32;;;;;;;;;;5055176;28;20213;-72
2024/03/03 12:41:29;;;;;;;10.85;8.30;;;;;;;;;;5045312;28;20343;-72
2024/03/03 12:43:55;;;;;;;12.35;6.78;;;;;;;;;;5070204;28;20686;-72
2024/03/03 12:46:21;;;;;;;11.25;7.95;;;;;;;;;;5064636;28;20188;-72
2024/03/03 12:48:46;;;;;;;11.57;7.82;;;;;;;;;;5069846;28;20228;-71
2024/03/03 12:51:13;;;;;;;10.20;7.03;;;;;;;;;;5069184;28;20221;-72
2024/03/03 12:53:39;;;;;;;10.55;7.13;;;;;;;;;;5068406;28;20219;-72
2024/03/03 12:56:18;;;;;;;9.48;6.88;;;;;;;;;;5064508;28;20189;-72
2024/03/03 12:58:46;;;;;;;11.43;6.82;;;;;;;;;;5063335;28;20215;-72
2024/03/03 13:01:13;;;;;;;9.40;6.43;;;;;;;;;;5066199;28;20189;-73
2024/03/03 13:03:42;;;;;;;9.93;7.13;;;;;;;;;;5079300;28;20195;-72
2024/03/03 13:06:13;;;;;;;12.75;7.53;;;;;;;;;;5067689;28;20177;-72
2024/03/03 13:08:40;;;;;;;10.77;7.18;;;;;;;;;;5065954;28;20260;-73
2024/03/03 13:11:11;;;;;;;9.40;6.82;;;;;;;;;;5032769;28;20303;-72
2024/03/03 13:13:39;;;;;;;9.75;6.97;;;;;;;;;;5058562;28;20640;-72
2024/03/03 13:16:08;;;;;;;11.73;6.97;;;;;;;;;;5066759;28;20184;-73
2024/03/03 13:18:35;;;;;;;9.27;7.25;;;;;;;;;;5067307;28;20213;-73
2024/03/03 13:21:18;;;;;;;11.82;7.20;;;;;;;;;;5048690;28;20216;-72
2024/03/03 13:23:44;;;;;;;11.05;7.32;;;;;;;;;;5070598;28;20192;-72
2024/03/03 13:26:09;;;;;;;12.13;8.10;;;;;;;;;;5064355;28;20181;-73
2024/03/03 13:28:35;;;;;;;13.55;6.82;;;;;;;;;;5066545;28;20671;-72
2024/03/03 13:31:02;;;;;;;11.05;7.15;;;;;;;;;;5067464;28;20194;-72
2024/03/03 13:33:33;;;;;;;11.57;7.80;;;;;;;;;;5067961;28;20679;-71
2024/03/03 13:36:03;;;;;;;11.43;8.00;;;;;;;;;;5064487;28;20311;-71
2024/03/03 13:38:29;;;;;;;12.75;8.73;;;;;;;;;;5045189;28;20220;-71
2024/03/03 13:40:55;;;;;;;12.68;7.95;;;;;;;;;;5044246;28;20239;-72
2024/03/03 13:43:21;;;;;;;13.75;8.38;;;;;;;;;;5042229;28;20704;-72
2024/03/03 13:45:47;;;;;;;12.25;8.32;;;;;;;;;;5046021;28;20189;-72
2024/03/03 13:48:14;;;;;;;11.98;7.88;;;;;;;;;;5045392;28;20205;-72
2024/03/03 13:50:40;;;;;;;13.05;8.68;;;;;;;;;;5052564;28;20203;-72
2024/03/03 13:53:09;;;;;;;12.43;7.97;;;;;;;;;;5046280;28;20193;-72
2024/03/03 13:55:35;;;;;;;13.48;8.40;;;;;;;;;;5060442;28;20272;-73
2024/03/03 13:58:01;;;;;;;11.98;8.95;;;;;;;;;;5058269;28;20188;-72
2024/03/03 14:00:29;;;;;;;12.35;7.95;;;;;;;;;;5064901;28;20193;-72
2024/03/03 14:03:03;;;;;;;14.05;9.25;;;;;;;;;;5065992;28;21475;-72
2024/03/03 14:05:29;;;;;;;12.95;8.27;;;;;;;;;;5068012;28;20198;-72
2024/03/03 14:07:55;;;;;;;15.40;8.75;;;;;;;;;;5047013;28;20276;-72
2024/03/03 14:10:21;;;;;;;13.05;9.15;;;;;;;;;;5061294;28;20355;-72
2024/03/03 14:12:47;;;;;;;14.63;9.40;;;;;;;;;;5051203;28;20197;-72
2024/03/03 14:15:12;;;;;;;13.55;8.50;;;;;;;;;;5049755;28;20185;-72
2024/03/03 14:17:38;;;;;;;11.95;8.88;;;;;;;;;;5062437;28;20556;-72
2024/03/03 14:20:06;;;;;;;11.88;9.18;;;;;;;;;;5043318;28;20221;-72
2024/03/03 14:22:32;;;;;;;13.20;9.70;;;;;;;;;;5046063;28;20654;-72
2024/03/03 14:24:57;;;;;;;17.55;10.35;;;;;;;;;;5048224;28;20235;-72